sensor_id;sensor_type;location;lat;lon;timestamp;P1;durP1;ratioP1;P2;durP2;ratioP2
15716;SDS011;7960;50.908;4.204;2023-03-01T00:00:12;11.53;;;7.93;;
15716;SDS011;7960;50.908;4.204;2023-03-01T00:02:41;13.67;;;8.13;;
15716;SDS011;7960;50.908;4.204;2023-03-01T00:05:08;12.27;;;8.07;;
15716;SDS011;7960;50.908;4.204;2023-03-01T00:07:35;11.23;;;8.43;;
15716;SDS011;7960;50.908;4.204;2023-03-01T00:10:01;12.77;;;8.57;;
15716;SDS011;7960;50.908;4.204;2023-03-01T00:12:29;11.80;;;8.10;;
15716;SDS011;7960;50.908;4.204;2023-03-01T00:14:57;10.40;;;8.03;;
15716;SDS011;7960;50.908;4.204;2023-03-01T00:17:24;12.47;;;8.10;;
15716;SDS011;7960;50.908;4.204;2023-03-01T00:19:52;11.33;;;7.63;;
15716;SDS011;7960;50.908;4.204;2023-03-01T00:22:18;13.03;;;7.83;;
15716;SDS011;7960;50.908;4.204;2023-03-01T00:24:45;10.93;;;8.20;;
15716;SDS011;7960;50.908;4.204;2023-03-01T00:27:12;14.47;;;8.23;;
15716;SDS011;7960;50.908;4.204;2023-03-01T00:29:39;12.03;;;7.50;;
15716;SDS011;7960;50.908;4.204;2023-03-01T00:32:06;12.17;;;8.47;;
15716;SDS011;7960;50.908;4.204;2023-03-01T00:34:33;11.60;;;7.23;;
15716;SDS011;7960;50.908;4.204;2023-03-01T00:37:01;11.27;;;7.50;;
15716;SDS011;7960;50.908;4.204;2023-03-01T00:39:30;12.07;;;8.30;;
15716;SDS011;7960;50.908;4.204;2023-03-01T00:41:57;12.93;;;8.03;;
15716;SDS011;7960;50.908;4.204;2023-03-01T00:44:25;12.37;;;8.10;;
15716;SDS011;7960;50.908;4.204;2023-03-01T00:46:53;14.50;;;8.30;;
15716;SDS011;7960;50.908;4.204;2023-03-01T00:49:20;12.13;;;7.77;;
15716;SDS011;7960;50.908;4.204;2023-03-01T00:51:49;10.53;;;7.70;;
15716;SDS011;7960;50.908;4.204;2023-03-01T00:54:17;9.90;;;7.53;;
15716;SDS011;7960;50.908;4.204;2023-03-01T00:56:44;13.50;;;7.70;;
15716;SDS011;7960;50.908;4.204;2023-03-01T00:59:11;15.57;;;8.00;;
15716;SDS011;7960;50.908;4.204;2023-03-01T01:01:38;11.47;;;7.93;;
15716;SDS011;7960;50.908;4.204;2023-03-01T01:04:06;11.40;;;7.77;;
15716;SDS011;7960;50.908;4.204;2023-03-01T01:06:35;10.33;;;7.57;;
15716;SDS011;7960;50.908;4.204;2023-03-01T01:09:04;11.17;;;7.73;;
15716;SDS011;7960;50.908;4.204;2023-03-01T01:11:35;11.93;;;7.53;;
15716;SDS011;7960;50.908;4.204;2023-03-01T01:14:02;12.73;;;7.53;;
15716;SDS011;7960;50.908;4.204;2023-03-01T01:16:29;11.83;;;7.87;;
15716;SDS011;7960;50.908;4.204;2023-03-01T01:18:56;10.13;;;7.23;;
15716;SDS011;7960;50.908;4.204;2023-03-01T01:21:23;12.47;;;7.50;;
15716;SDS011;7960;50.908;4.204;2023-03-01T01:23:52;13.40;;;7.80;;
15716;SDS011;7960;50.908;4.204;2023-03-01T01:26:19;10.23;;;6.87;;
15716;SDS011;7960;50.908;4.204;2023-03-01T01:28:49;10.50;;;7.40;;
15716;SDS011;7960;50.908;4.204;2023-03-01T01:31:17;13.23;;;7.07;;
15716;SDS011;7960;50.908;4.204;2023-03-01T01:33:44;9.70;;;6.93;;
15716;SDS011;7960;50.908;4.204;2023-03-01T01:36:11;9.30;;;6.67;;
15716;SDS011;7960;50.908;4.204;2023-03-01T01:38:38;11.87;;;7.77;;
15716;SDS011;7960;50.908;4.204;2023-03-01T01:41:08;13.73;;;7.53;;
15716;SDS011;7960;50.908;4.204;2023-03-01T01:43:37;10.63;;;6.87;;
15716;SDS011;7960;50.908;4.204;2023-03-01T01:46:10;10.07;;;6.83;;
15716;SDS011;7960;50.908;4.204;2023-03-01T01:48:45;9.60;;;7.13;;
15716;SDS011;7960;50.908;4.204;2023-03-01T01:51:16;11.30;;;7.33;;
15716;SDS011;7960;50.908;4.204;2023-03-01T01:53:46;11.70;;;7.07;;
15716;SDS011;7960;50.908;4.204;2023-03-01T01:56:16;11.00;;;7.90;;
15716;SDS011;7960;50.908;4.204;2023-03-01T01:58:44;12.03;;;6.77;;
15716;SDS011;7960;50.908;4.204;2023-03-01T02:01:13;12.87;;;7.53;;
15716;SDS011;7960;50.908;4.204;2023-03-01T02:03:40;10.87;;;7.67;;
15716;SDS011;7960;50.908;4.204;2023-03-01T02:06:12;12.73;;;7.47;;
15716;SDS011;7960;50.908;4.204;2023-03-01T02:08:43;10.17;;;7.40;;
15716;SDS011;7960;50.908;4.204;2023-03-01T02:11:12;9.83;;;7.23;;
15716;SDS011;7960;50.908;4.204;2023-03-01T02:13:40;9.77;;;6.73;;
15716;SDS011;7960;50.908;4.204;2023-03-01T02:16:08;12.07;;;7.10;;
15716;SDS011;7960;50.908;4.204;2023-03-01T02:18:38;12.30;;;7.57;;
15716;SDS011;7960;50.908;4.204;2023-03-01T02:21:10;13.03;;;8.10;;
15716;SDS011;7960;50.908;4.204;2023-03-01T02:23:46;10.77;;;7.67;;
15716;SDS011;7960;50.908;4.204;2023-03-01T02:26:17;11.37;;;7.47;;
15716;SDS011;7960;50.908;4.204;2023-03-01T02:28:48;12.17;;;7.97;;
15716;SDS011;7960;50.908;4.204;2023-03-01T02:31:16;9.53;;;7.37;;
15716;SDS011;7960;50.908;4.204;2023-03-01T02:34:02;13.67;;;8.20;;
15716;SDS011;7960;50.908;4.204;2023-03-01T02:36:31;12.03;;;7.53;;
15716;SDS011;7960;50.908;4.204;2023-03-01T02:39:02;12.07;;;7.43;;
15716;SDS011;7960;50.908;4.204;2023-03-01T02:41:31;10.43;;;7.47;;
15716;SDS011;7960;50.908;4.204;2023-03-01T02:44:04;12.47;;;8.03;;
15716;SDS011;7960;50.908;4.204;2023-03-01T02:46:34;11.67;;;7.57;;
15716;SDS011;7960;50.908;4.204;2023-03-01T02:49:16;10.70;;;7.27;;
15716;SDS011;7960;50.908;4.204;2023-03-01T02:51:55;11.53;;;7.83;;
15716;SDS011;7960;50.908;4.204;2023-03-01T02:54:46;12.80;;;8.37;;
15716;SDS011;7960;50.908;4.204;2023-03-01T02:57:17;11.27;;;7.77;;
15716;SDS011;7960;50.908;4.204;2023-03-01T02:59:46;11.43;;;7.33;;
15716;SDS011;7960;50.908;4.204;2023-03-01T03:02:19;11.80;;;7.70;;
15716;SDS011;7960;50.908;4.204;2023-03-01T03:05:00;9.70;;;7.40;;
15716;SDS011;7960;50.908;4.204;2023-03-01T03:07:28;11.93;;;8.07;;
15716;SDS011;7960;50.908;4.204;2023-03-01T03:09:55;13.60;;;7.90;;
15716;SDS011;7960;50.908;4.204;2023-03-01T03:12:22;11.47;;;7.87;;
15716;SDS011;7960;50.908;4.204;2023-03-01T03:14:50;10.50;;;8.00;;
15716;SDS011;7960;50.908;4.204;2023-03-01T03:17:17;12.77;;;8.30;;
15716;SDS011;7960;50.908;4.204;2023-03-01T03:19:43;10.93;;;7.87;;
15716;SDS011;7960;50.908;4.204;2023-03-01T03:22:11;10.87;;;8.13;;
15716;SDS011;7960;50.908;4.204;2023-03-01T03:24:37;11.30;;;8.00;;
15716;SDS011;7960;50.908;4.204;2023-03-01T03:27:05;10.37;;;7.93;;
15716;SDS011;7960;50.908;4.204;2023-03-01T03:29:32;11.93;;;7.87;;
15716;SDS011;7960;50.908;4.204;2023-03-01T03:32:01;11.80;;;7.63;;
15716;SDS011;7960;50.908;4.204;2023-03-01T03:34:28;11.30;;;8.13;;
15716;SDS011;7960;50.908;4.204;2023-03-01T03:36:55;11.17;;;8.23;;
15716;SDS011;7960;50.908;4.204;2023-03-01T03:39:24;12.37;;;7.90;;
15716;SDS011;7960;50.908;4.204;2023-03-01T03:41:51;14.07;;;8.70;;
15716;SDS011;7960;50.908;4.204;2023-03-01T03:44:18;11.07;;;7.90;;
15716;SDS011;7960;50.908;4.204;2023-03-01T03:46:45;11.37;;;7.37;;
15716;SDS011;7960;50.908;4.204;2023-03-01T03:49:13;11.67;;;8.07;;
15716;SDS011;7960;50.908;4.204;2023-03-01T03:51:40;10.43;;;7.67;;
15716;SDS011;7960;50.908;4.204;2023-03-01T03:54:06;13.80;;;8.67;;
15716;SDS011;7960;50.908;4.204;2023-03-01T03:56:33;16.63;;;8.50;;
15716;SDS011;7960;50.908;4.204;2023-03-01T03:59:00;12.13;;;7.90;;
15716;SDS011;7960;50.908;4.204;2023-03-01T04:01:27;10.67;;;7.80;;
15716;SDS011;7960;50.908;4.204;2023-03-01T04:03:54;11.80;;;7.63;;
15716;SDS011;7960;50.908;4.204;2023-03-01T04:06:22;10.80;;;7.97;;
15716;SDS011;7960;50.908;4.204;2023-03-01T04:08:49;16.67;;;9.97;;
15716;SDS011;7960;50.908;4.204;2023-03-01T04:11:16;18.30;;;8.40;;
15716;SDS011;7960;50.908;4.204;2023-03-01T04:13:52;11.83;;;8.13;;
15716;SDS011;7960;50.908;4.204;2023-03-01T04:16:21;10.27;;;7.83;;
15716;SDS011;7960;50.908;4.204;2023-03-01T04:18:48;15.33;;;8.47;;
15716;SDS011;7960;50.908;4.204;2023-03-01T04:21:15;14.13;;;8.93;;
15716;SDS011;7960;50.908;4.204;2023-03-01T04:23:44;10.57;;;7.83;;
15716;SDS011;7960;50.908;4.204;2023-03-01T04:26:10;10.87;;;8.23;;
15716;SDS011;7960;50.908;4.204;2023-03-01T04:28:38;11.37;;;7.67;;
15716;SDS011;7960;50.908;4.204;2023-03-01T04:31:08;12.33;;;8.17;;
15716;SDS011;7960;50.908;4.204;2023-03-01T04:33:41;12.10;;;8.20;;
15716;SDS011;7960;50.908;4.204;2023-03-01T04:36:10;10.37;;;7.63;;
15716;SDS011;7960;50.908;4.204;2023-03-01T04:38:38;11.47;;;7.87;;
15716;SDS011;7960;50.908;4.204;2023-03-01T04:41:08;12.53;;;8.10;;
15716;SDS011;7960;50.908;4.204;2023-03-01T04:43:36;10.30;;;7.60;;
15716;SDS011;7960;50.908;4.204;2023-03-01T04:46:04;14.23;;;7.83;;
15716;SDS011;7960;50.908;4.204;2023-03-01T04:48:34;10.80;;;7.60;;
15716;SDS011;7960;50.908;4.204;2023-03-01T04:51:02;11.97;;;8.00;;
15716;SDS011;7960;50.908;4.204;2023-03-01T04:53:29;13.63;;;8.10;;
15716;SDS011;7960;50.908;4.204;2023-03-01T04:55:57;11.90;;;7.60;;
15716;SDS011;7960;50.908;4.204;2023-03-01T04:58:26;16.97;;;8.00;;
15716;SDS011;7960;50.908;4.204;2023-03-01T05:00:54;12.00;;;8.23;;
15716;SDS011;7960;50.908;4.204;2023-03-01T05:03:21;13.97;;;8.17;;
15716;SDS011;7960;50.908;4.204;2023-03-01T05:05:50;12.63;;;7.93;;
15716;SDS011;7960;50.908;4.204;2023-03-01T05:08:17;12.63;;;7.83;;
15716;SDS011;7960;50.908;4.204;2023-03-01T05:10:46;11.87;;;7.77;;
15716;SDS011;7960;50.908;4.204;2023-03-01T05:13:14;11.73;;;8.10;;
15716;SDS011;7960;50.908;4.204;2023-03-01T05:15:47;10.73;;;7.73;;
15716;SDS011;7960;50.908;4.204;2023-03-01T05:18:15;12.83;;;7.77;;
15716;SDS011;7960;50.908;4.204;2023-03-01T05:20:42;12.80;;;8.00;;
15716;SDS011;7960;50.908;4.204;2023-03-01T05:23:09;13.40;;;7.90;;
15716;SDS011;7960;50.908;4.204;2023-03-01T05:25:36;9.87;;;7.67;;
15716;SDS011;7960;50.908;4.204;2023-03-01T05:28:05;10.60;;;8.00;;
15716;SDS011;7960;50.908;4.204;2023-03-01T05:30:36;10.67;;;7.50;;
15716;SDS011;7960;50.908;4.204;2023-03-01T05:33:06;16.07;;;8.50;;
15716;SDS011;7960;50.908;4.204;2023-03-01T05:35:38;11.20;;;8.03;;
15716;SDS011;7960;50.908;4.204;2023-03-01T05:38:05;13.30;;;8.60;;
15716;SDS011;7960;50.908;4.204;2023-03-01T05:40:33;11.87;;;7.87;;
15716;SDS011;7960;50.908;4.204;2023-03-01T05:43:00;13.47;;;8.10;;
15716;SDS011;7960;50.908;4.204;2023-03-01T05:45:30;11.23;;;7.53;;
15716;SDS011;7960;50.908;4.204;2023-03-01T05:47:57;12.40;;;8.43;;
15716;SDS011;7960;50.908;4.204;2023-03-01T05:50:26;13.60;;;8.17;;
15716;SDS011;7960;50.908;4.204;2023-03-01T05:52:56;12.77;;;7.13;;
15716;SDS011;7960;50.908;4.204;2023-03-01T05:55:24;12.67;;;8.00;;
15716;SDS011;7960;50.908;4.204;2023-03-01T05:57:51;12.53;;;7.70;;
15716;SDS011;7960;50.908;4.204;2023-03-01T06:00:19;12.93;;;7.67;;
15716;SDS011;7960;50.908;4.204;2023-03-01T06:02:48;12.80;;;7.57;;
15716;SDS011;7960;50.908;4.204;2023-03-01T06:05:17;12.77;;;7.93;;
15716;SDS011;7960;50.908;4.204;2023-03-01T06:07:45;13.13;;;7.37;;
15716;SDS011;7960;50.908;4.204;2023-03-01T06:10:12;11.63;;;7.33;;
15716;SDS011;7960;50.908;4.204;2023-03-01T06:12:40;14.60;;;8.30;;
15716;SDS011;7960;50.908;4.204;2023-03-01T06:15:09;12.20;;;7.67;;
15716;SDS011;7960;50.908;4.204;2023-03-01T06:17:38;10.70;;;7.73;;
15716;SDS011;7960;50.908;4.204;2023-03-01T06:20:08;12.50;;;7.83;;
15716;SDS011;7960;50.908;4.204;2023-03-01T06:22:37;14.83;;;7.90;;
15716;SDS011;7960;50.908;4.204;2023-03-01T06:25:06;13.73;;;7.63;;
15716;SDS011;7960;50.908;4.204;2023-03-01T06:27:34;10.40;;;7.67;;
15716;SDS011;7960;50.908;4.204;2023-03-01T06:30:01;12.33;;;7.90;;
15716;SDS011;7960;50.908;4.204;2023-03-01T06:32:28;10.43;;;7.20;;
15716;SDS011;7960;50.908;4.204;2023-03-01T06:34:55;16.10;;;7.47;;
15716;SDS011;7960;50.908;4.204;2023-03-01T06:37:23;24.40;;;8.50;;
15716;SDS011;7960;50.908;4.204;2023-03-01T06:39:50;10.87;;;7.47;;
15716;SDS011;7960;50.908;4.204;2023-03-01T06:42:18;13.10;;;7.80;;
15716;SDS011;7960;50.908;4.204;2023-03-01T06:44:45;11.63;;;8.27;;
15716;SDS011;7960;50.908;4.204;2023-03-01T06:47:12;15.90;;;9.10;;
15716;SDS011;7960;50.908;4.204;2023-03-01T06:49:39;15.43;;;8.57;;
15716;SDS011;7960;50.908;4.204;2023-03-01T06:52:05;14.40;;;7.80;;
15716;SDS011;7960;50.908;4.204;2023-03-01T06:54:32;10.73;;;7.80;;
15716;SDS011;7960;50.908;4.204;2023-03-01T06:56:59;14.87;;;9.27;;
15716;SDS011;7960;50.908;4.204;2023-03-01T06:59:27;15.80;;;9.20;;
15716;SDS011;7960;50.908;4.204;2023-03-01T07:01:54;13.70;;;9.70;;
15716;SDS011;7960;50.908;4.204;2023-03-01T07:04:21;12.73;;;8.63;;
15716;SDS011;7960;50.908;4.204;2023-03-01T07:06:48;14.00;;;8.70;;
15716;SDS011;7960;50.908;4.204;2023-03-01T07:09:20;12.33;;;7.87;;
15716;SDS011;7960;50.908;4.204;2023-03-01T07:11:47;18.20;;;9.53;;
15716;SDS011;7960;50.908;4.204;2023-03-01T07:14:14;12.37;;;7.90;;
15716;SDS011;7960;50.908;4.204;2023-03-01T07:16:42;10.67;;;7.27;;
15716;SDS011;7960;50.908;4.204;2023-03-01T07:19:09;14.17;;;7.73;;
15716;SDS011;7960;50.908;4.204;2023-03-01T07:21:36;15.20;;;8.63;;
15716;SDS011;7960;50.908;4.204;2023-03-01T07:24:04;14.00;;;8.20;;
15716;SDS011;7960;50.908;4.204;2023-03-01T07:26:31;15.80;;;9.00;;
15716;SDS011;7960;50.908;4.204;2023-03-01T07:28:58;15.13;;;9.10;;
15716;SDS011;7960;50.908;4.204;2023-03-01T07:31:25;12.87;;;7.90;;
15716;SDS011;7960;50.908;4.204;2023-03-01T07:33:55;12.13;;;7.67;;
15716;SDS011;7960;50.908;4.204;2023-03-01T07:36:22;20.43;;;9.60;;
15716;SDS011;7960;50.908;4.204;2023-03-01T07:38:49;12.57;;;8.20;;
15716;SDS011;7960;50.908;4.204;2023-03-01T07:41:17;13.80;;;8.90;;
15716;SDS011;7960;50.908;4.204;2023-03-01T07:43:44;14.90;;;8.17;;
15716;SDS011;7960;50.908;4.204;2023-03-01T07:46:11;11.20;;;7.70;;
15716;SDS011;7960;50.908;4.204;2023-03-01T07:48:37;16.87;;;8.93;;
15716;SDS011;7960;50.908;4.204;2023-03-01T07:51:06;13.07;;;8.10;;
15716;SDS011;7960;50.908;4.204;2023-03-01T07:53:34;13.80;;;8.70;;
15716;SDS011;7960;50.908;4.204;2023-03-01T07:56:02;12.80;;;8.13;;
15716;SDS011;7960;50.908;4.204;2023-03-01T07:58:30;15.63;;;8.83;;
15716;SDS011;7960;50.908;4.204;2023-03-01T08:01:00;17.23;;;8.50;;
15716;SDS011;7960;50.908;4.204;2023-03-01T08:03:27;19.37;;;11.83;;
15716;SDS011;7960;50.908;4.204;2023-03-01T08:05:54;15.27;;;9.30;;
15716;SDS011;7960;50.908;4.204;2023-03-01T08:08:22;12.10;;;8.17;;
15716;SDS011;7960;50.908;4.204;2023-03-01T08:10:49;12.27;;;8.13;;
15716;SDS011;7960;50.908;4.204;2023-03-01T08:13:16;11.97;;;8.60;;
15716;SDS011;7960;50.908;4.204;2023-03-01T08:15:47;13.37;;;9.30;;
15716;SDS011;7960;50.908;4.204;2023-03-01T08:18:14;13.03;;;9.00;;
15716;SDS011;7960;50.908;4.204;2023-03-01T08:20:41;14.10;;;8.93;;
15716;SDS011;7960;50.908;4.204;2023-03-01T08:23:08;17.20;;;9.20;;
15716;SDS011;7960;50.908;4.204;2023-03-01T08:25:36;15.43;;;9.87;;
15716;SDS011;7960;50.908;4.204;2023-03-01T08:28:04;15.50;;;9.70;;
15716;SDS011;7960;50.908;4.204;2023-03-01T08:30:31;13.30;;;8.20;;
15716;SDS011;7960;50.908;4.204;2023-03-01T08:32:58;15.57;;;9.27;;
15716;SDS011;7960;50.908;4.204;2023-03-01T08:35:25;15.10;;;8.77;;
15716;SDS011;7960;50.908;4.204;2023-03-01T08:37:52;12.50;;;8.70;;
15716;SDS011;7960;50.908;4.204;2023-03-01T08:40:18;15.03;;;9.50;;
15716;SDS011;7960;50.908;4.204;2023-03-01T08:42:47;13.57;;;8.90;;
15716;SDS011;7960;50.908;4.204;2023-03-01T08:45:13;17.20;;;9.40;;
15716;SDS011;7960;50.908;4.204;2023-03-01T08:47:43;14.90;;;9.43;;
15716;SDS011;7960;50.908;4.204;2023-03-01T08:50:10;16.40;;;10.40;;
15716;SDS011;7960;50.908;4.204;2023-03-01T08:52:37;14.17;;;9.23;;
15716;SDS011;7960;50.908;4.204;2023-03-01T08:55:04;14.80;;;8.83;;
15716;SDS011;7960;50.908;4.204;2023-03-01T08:57:32;16.93;;;9.17;;
15716;SDS011;7960;50.908;4.204;2023-03-01T09:00:00;22.17;;;13.63;;
15716;SDS011;7960;50.908;4.204;2023-03-01T09:02:28;21.03;;;12.20;;
15716;SDS011;7960;50.908;4.204;2023-03-01T09:04:55;16.60;;;9.57;;
15716;SDS011;7960;50.908;4.204;2023-03-01T09:07:21;20.83;;;11.87;;
15716;SDS011;7960;50.908;4.204;2023-03-01T09:09:53;19.13;;;10.10;;
15716;SDS011;7960;50.908;4.204;2023-03-01T09:12:20;15.40;;;9.33;;
15716;SDS011;7960;50.908;4.204;2023-03-01T09:14:47;13.10;;;8.30;;
15716;SDS011;7960;50.908;4.204;2023-03-01T09:17:15;14.93;;;9.97;;
15716;SDS011;7960;50.908;4.204;2023-03-01T09:19:42;15.00;;;9.37;;
15716;SDS011;7960;50.908;4.204;2023-03-01T09:22:09;14.73;;;9.30;;
15716;SDS011;7960;50.908;4.204;2023-03-01T09:24:35;14.80;;;8.43;;
15716;SDS011;7960;50.908;4.204;2023-03-01T09:27:02;14.00;;;10.07;;
15716;SDS011;7960;50.908;4.204;2023-03-01T09:29:33;17.53;;;11.20;;
15716;SDS011;7960;50.908;4.204;2023-03-01T09:32:01;14.50;;;9.87;;
15716;SDS011;7960;50.908;4.204;2023-03-01T09:34:29;15.77;;;10.83;;
15716;SDS011;7960;50.908;4.204;2023-03-01T09:36:57;12.90;;;9.50;;
15716;SDS011;7960;50.908;4.204;2023-03-01T09:39:27;15.63;;;10.53;;
15716;SDS011;7960;50.908;4.204;2023-03-01T09:41:55;17.77;;;10.17;;
15716;SDS011;7960;50.908;4.204;2023-03-01T09:44:28;12.27;;;8.97;;
15716;SDS011;7960;50.908;4.204;2023-03-01T09:47:00;13.37;;;9.57;;
15716;SDS011;7960;50.908;4.204;2023-03-01T09:49:30;17.83;;;10.43;;
15716;SDS011;7960;50.908;4.204;2023-03-01T09:52:01;18.43;;;10.67;;
15716;SDS011;7960;50.908;4.204;2023-03-01T09:54:35;12.83;;;8.90;;
15716;SDS011;7960;50.908;4.204;2023-03-01T09:57:06;20.43;;;9.53;;
15716;SDS011;7960;50.908;4.204;2023-03-01T09:59:50;14.17;;;9.13;;
15716;SDS011;7960;50.908;4.204;2023-03-01T10:02:30;14.37;;;9.60;;
15716;SDS011;7960;50.908;4.204;2023-03-01T10:05:09;12.90;;;9.53;;
15716;SDS011;7960;50.908;4.204;2023-03-01T10:07:48;14.60;;;9.07;;
15716;SDS011;7960;50.908;4.204;2023-03-01T10:10:25;13.40;;;9.57;;
15716;SDS011;7960;50.908;4.204;2023-03-01T10:12:54;15.50;;;9.73;;
15716;SDS011;7960;50.908;4.204;2023-03-01T10:15:25;13.50;;;9.00;;
15716;SDS011;7960;50.908;4.204;2023-03-01T10:18:00;17.43;;;10.13;;
15716;SDS011;7960;50.908;4.204;2023-03-01T10:20:37;20.97;;;9.13;;
15716;SDS011;7960;50.908;4.204;2023-03-01T10:23:11;16.57;;;9.27;;
15716;SDS011;7960;50.908;4.204;2023-03-01T10:25:44;13.43;;;9.57;;
15716;SDS011;7960;50.908;4.204;2023-03-01T10:28:20;17.60;;;10.33;;
15716;SDS011;7960;50.908;4.204;2023-03-01T10:30:52;14.07;;;8.80;;
15716;SDS011;7960;50.908;4.204;2023-03-01T10:33:20;13.60;;;9.03;;
15716;SDS011;7960;50.908;4.204;2023-03-01T10:35:51;13.93;;;8.93;;
15716;SDS011;7960;50.908;4.204;2023-03-01T10:38:18;17.37;;;11.20;;
15716;SDS011;7960;50.908;4.204;2023-03-01T10:40:50;19.47;;;10.97;;
15716;SDS011;7960;50.908;4.204;2023-03-01T10:43:19;17.50;;;9.67;;
15716;SDS011;7960;50.908;4.204;2023-03-01T10:45:46;17.10;;;10.47;;
15716;SDS011;7960;50.908;4.204;2023-03-01T10:48:14;14.33;;;9.53;;
15716;SDS011;7960;50.908;4.204;2023-03-01T10:50:43;14.03;;;10.20;;
15716;SDS011;7960;50.908;4.204;2023-03-01T10:53:26;14.43;;;10.13;;
15716;SDS011;7960;50.908;4.204;2023-03-01T10:55:59;16.87;;;9.90;;
15716;SDS011;7960;50.908;4.204;2023-03-01T10:58:28;16.23;;;10.37;;
15716;SDS011;7960;50.908;4.204;2023-03-01T11:00:57;20.17;;;12.37;;
15716;SDS011;7960;50.908;4.204;2023-03-01T11:03:26;14.13;;;8.87;;
15716;SDS011;7960;50.908;4.204;2023-03-01T11:06:05;15.43;;;9.57;;
15716;SDS011;7960;50.908;4.204;2023-03-01T11:08:48;16.07;;;9.20;;
15716;SDS011;7960;50.908;4.204;2023-03-01T11:11:23;12.90;;;8.37;;
15716;SDS011;7960;50.908;4.204;2023-03-01T11:13:57;14.03;;;9.40;;
15716;SDS011;7960;50.908;4.204;2023-03-01T11:16:26;19.20;;;9.83;;
15716;SDS011;7960;50.908;4.204;2023-03-01T11:19:13;15.67;;;9.20;;
15716;SDS011;7960;50.908;4.204;2023-03-01T11:21:48;13.33;;;8.43;;
15716;SDS011;7960;50.908;4.204;2023-03-01T11:24:27;12.70;;;8.67;;
15716;SDS011;7960;50.908;4.204;2023-03-01T11:26:58;13.47;;;8.83;;
15716;SDS011;7960;50.908;4.204;2023-03-01T11:29:30;13.97;;;8.77;;
15716;SDS011;7960;50.908;4.204;2023-03-01T11:32:08;12.90;;;8.20;;
15716;SDS011;7960;50.908;4.204;2023-03-01T11:34:39;15.10;;;8.60;;
15716;SDS011;7960;50.908;4.204;2023-03-01T11:37:12;12.33;;;8.33;;
15716;SDS011;7960;50.908;4.204;2023-03-01T11:39:53;16.43;;;8.93;;
15716;SDS011;7960;50.908;4.204;2023-03-01T11:42:28;14.97;;;10.10;;
15716;SDS011;7960;50.908;4.204;2023-03-01T11:45:09;12.10;;;8.40;;
15716;SDS011;7960;50.908;4.204;2023-03-01T11:47:42;14.27;;;9.00;;
15716;SDS011;7960;50.908;4.204;2023-03-01T11:50:25;11.47;;;7.97;;
15716;SDS011;7960;50.908;4.204;2023-03-01T11:52:59;14.27;;;8.10;;
15716;SDS011;7960;50.908;4.204;2023-03-01T11:55:46;11.70;;;8.10;;
15716;SDS011;7960;50.908;4.204;2023-03-01T11:58:32;12.53;;;9.03;;
15716;SDS011;7960;50.908;4.204;2023-03-01T12:01:12;14.67;;;8.90;;
15716;SDS011;7960;50.908;4.204;2023-03-01T12:04:08;12.63;;;8.63;;
15716;SDS011;7960;50.908;4.204;2023-03-01T12:06:56;12.37;;;8.77;;
15716;SDS011;7960;50.908;4.204;2023-03-01T12:09:27;17.70;;;9.07;;
15716;SDS011;7960;50.908;4.204;2023-03-01T12:12:11;16.57;;;9.77;;
15716;SDS011;7960;50.908;4.204;2023-03-01T12:14:54;12.80;;;9.13;;
15716;SDS011;7960;50.908;4.204;2023-03-01T12:17:47;13.80;;;9.57;;
15716;SDS011;7960;50.908;4.204;2023-03-01T12:20:26;15.40;;;8.93;;
15716;SDS011;7960;50.908;4.204;2023-03-01T12:22:59;11.33;;;7.43;;
15716;SDS011;7960;50.908;4.204;2023-03-01T12:25:39;13.37;;;8.87;;
15716;SDS011;7960;50.908;4.204;2023-03-01T12:31:11;13.17;;;8.80;;
15716;SDS011;7960;50.908;4.204;2023-03-01T12:33:59;10.87;;;7.70;;
15716;SDS011;7960;50.908;4.204;2023-03-01T12:36:31;12.73;;;8.50;;
15716;SDS011;7960;50.908;4.204;2023-03-01T12:39:24;11.00;;;8.77;;
15716;SDS011;7960;50.908;4.204;2023-03-01T12:42:07;12.23;;;9.27;;
15716;SDS011;7960;50.908;4.204;2023-03-01T12:44:49;16.13;;;8.13;;
15716;SDS011;7960;50.908;4.204;2023-03-01T12:47:37;10.83;;;8.50;;
15716;SDS011;7960;50.908;4.204;2023-03-01T12:50:20;11.43;;;8.40;;
15716;SDS011;7960;50.908;4.204;2023-03-01T12:52:50;10.90;;;8.20;;
15716;SDS011;7960;50.908;4.204;2023-03-01T12:55:24;12.30;;;9.27;;
15716;SDS011;7960;50.908;4.204;2023-03-01T12:57:56;13.10;;;9.63;;
15716;SDS011;7960;50.908;4.204;2023-03-01T13:00:37;12.00;;;8.40;;
15716;SDS011;7960;50.908;4.204;2023-03-01T13:03:14;13.77;;;7.97;;
15716;SDS011;7960;50.908;4.204;2023-03-01T13:05:52;12.77;;;8.40;;
15716;SDS011;7960;50.908;4.204;2023-03-01T13:08:29;9.63;;;7.40;;
15716;SDS011;7960;50.908;4.204;2023-03-01T13:11:03;11.10;;;8.17;;
15716;SDS011;7960;50.908;4.204;2023-03-01T13:13:31;15.53;;;8.93;;
15716;SDS011;7960;50.908;4.204;2023-03-01T13:16:11;11.13;;;8.23;;
15716;SDS011;7960;50.908;4.204;2023-03-01T13:18:47;10.50;;;8.13;;
15716;SDS011;7960;50.908;4.204;2023-03-01T13:21:14;10.87;;;7.97;;
15716;SDS011;7960;50.908;4.204;2023-03-01T13:23:56;12.63;;;8.07;;
15716;SDS011;7960;50.908;4.204;2023-03-01T13:26:23;10.93;;;8.30;;
15716;SDS011;7960;50.908;4.204;2023-03-01T13:28:51;13.67;;;8.27;;
15716;SDS011;7960;50.908;4.204;2023-03-01T13:37:19;20.47;;;9.53;;
15716;SDS011;7960;50.908;4.204;2023-03-01T13:39:50;11.97;;;8.60;;
15716;SDS011;7960;50.908;4.204;2023-03-01T13:42:31;14.87;;;8.30;;
15716;SDS011;7960;50.908;4.204;2023-03-01T13:45:04;18.47;;;9.60;;
15716;SDS011;7960;50.908;4.204;2023-03-01T13:47:49;16.73;;;10.63;;
15716;SDS011;7960;50.908;4.204;2023-03-01T13:50:22;11.83;;;8.03;;
15716;SDS011;7960;50.908;4.204;2023-03-01T13:52:52;12.60;;;8.80;;
15716;SDS011;7960;50.908;4.204;2023-03-01T13:55:24;10.53;;;7.90;;
15716;SDS011;7960;50.908;4.204;2023-03-01T13:57:58;10.70;;;7.90;;
15716;SDS011;7960;50.908;4.204;2023-03-01T14:00:27;12.93;;;9.00;;
15716;SDS011;7960;50.908;4.204;2023-03-01T14:03:08;16.67;;;10.80;;
15716;SDS011;7960;50.908;4.204;2023-03-01T14:05:38;13.73;;;9.97;;
15716;SDS011;7960;50.908;4.204;2023-03-01T14:08:17;11.80;;;8.93;;
15716;SDS011;7960;50.908;4.204;2023-03-01T14:10:51;11.73;;;8.57;;
15716;SDS011;7960;50.908;4.204;2023-03-01T14:13:31;14.93;;;8.97;;
15716;SDS011;7960;50.908;4.204;2023-03-01T14:16:13;8.93;;;7.73;;
15716;SDS011;7960;50.908;4.204;2023-03-01T14:18:50;10.10;;;8.33;;
15716;SDS011;7960;50.908;4.204;2023-03-01T14:21:30;11.43;;;8.83;;
15716;SDS011;7960;50.908;4.204;2023-03-01T14:23:57;11.83;;;9.17;;
15716;SDS011;7960;50.908;4.204;2023-03-01T14:26:24;8.60;;;7.50;;
15716;SDS011;7960;50.908;4.204;2023-03-01T14:28:51;10.83;;;7.87;;
15716;SDS011;7960;50.908;4.204;2023-03-01T14:34:16;13.80;;;9.43;;
15716;SDS011;7960;50.908;4.204;2023-03-01T14:36:47;15.03;;;9.27;;
15716;SDS011;7960;50.908;4.204;2023-03-01T14:39:17;14.80;;;8.47;;
15716;SDS011;7960;50.908;4.204;2023-03-01T14:41:46;11.27;;;8.23;;
15716;SDS011;7960;50.908;4.204;2023-03-01T14:44:14;11.67;;;7.83;;
15716;SDS011;7960;50.908;4.204;2023-03-01T14:46:45;10.57;;;7.67;;
15716;SDS011;7960;50.908;4.204;2023-03-01T14:49:13;11.50;;;7.73;;
15716;SDS011;7960;50.908;4.204;2023-03-01T14:51:43;10.17;;;7.23;;
15716;SDS011;7960;50.908;4.204;2023-03-01T14:54:21;14.27;;;8.10;;
15716;SDS011;7960;50.908;4.204;2023-03-01T14:56:51;11.03;;;8.80;;
15716;SDS011;7960;50.908;4.204;2023-03-01T14:59:21;12.90;;;9.70;;
15716;SDS011;7960;50.908;4.204;2023-03-01T15:01:49;13.57;;;9.17;;
15716;SDS011;7960;50.908;4.204;2023-03-01T15:04:17;9.50;;;7.47;;
15716;SDS011;7960;50.908;4.204;2023-03-01T15:06:47;11.37;;;8.10;;
15716;SDS011;7960;50.908;4.204;2023-03-01T15:09:17;10.53;;;7.83;;
15716;SDS011;7960;50.908;4.204;2023-03-01T15:11:44;15.27;;;8.10;;
15716;SDS011;7960;50.908;4.204;2023-03-01T15:14:38;11.97;;;8.10;;
15716;SDS011;7960;50.908;4.204;2023-03-01T15:17:16;9.87;;;8.33;;
15716;SDS011;7960;50.908;4.204;2023-03-01T15:19:50;13.60;;;8.50;;